Time;durP1;ratioP1;P1;durP2;ratioP2;P2;SDS_P1;SDS_P2;PMS_P1;PMS_P2;Temp;Humidity;BMP_temperature;BMP_pressure;BME280_temperature;BME280_humidity;BME280_pressure;Samples;Min_cycle;Max_cycle;Signal;HPM_P1;HPM_P2
2022/06/27 00:00:29;;;;;;;5.80;4.43;;;18.90;99.90;;;;;;5089874;28;20032;-74
2022/06/27 00:02:54;;;;;;;4.35;3.92;;;18.90;99.90;;;;;;5090396;28;20052;-74
2022/06/27 00:05:20;;;;;;;5.18;4.00;;;18.90;99.90;;;;;;5093137;28;20042;-73
2022/06/27 00:07:46;;;;;;;8.55;4.15;;;18.90;99.90;;;;;;5093748;28;20016;-74
2022/06/27 00:10:12;;;;;;;5.20;4.13;;;18.90;99.90;;;;;;5087043;28;20361;-74
2022/06/27 00:12:38;;;;;;;5.28;4.20;;;18.90;99.90;;;;;;5089215;28;20023;-74
2022/06/27 00:15:05;;;;;;;4.95;3.88;;;18.90;99.90;;;;;;5092075;28;20028;-74
2022/06/27 00:17:31;;;;;;;4.63;3.90;;;18.80;99.90;;;;;;5087443;28;20012;-74
2022/06/27 00:19:58;;;;;;;8.43;4.38;;;18.80;99.90;;;;;;5088904;28;20035;-74
2022/06/27 00:22:25;;;;;;;5.68;3.80;;;18.80;99.90;;;;;;5088350;28;20101;-74
2022/06/27 00:24:50;;;;;;;4.50;3.78;;;18.80;99.90;;;;;;5090036;28;20024;-73
2022/06/27 00:27:16;;;;;;;5.53;3.83;;;18.80;99.90;;;;;;5084252;28;20040;-74
2022/06/27 00:29:42;;;;;;;5.93;4.55;;;18.80;99.90;;;;;;5084878;28;20127;-74
2022/06/27 00:32:08;;;;;;;4.80;3.95;;;18.70;99.90;;;;;;5086552;28;20036;-74
2022/06/27 00:34:34;;;;;;;6.03;4.20;;;18.80;99.90;;;;;;5089449;28;20020;-74
2022/06/27 00:37:00;;;;;;;6.90;5.03;;;18.70;99.90;;;;;;5087474;28;20024;-74
2022/06/27 00:39:26;;;;;;;5.82;4.45;;;18.70;99.90;;;;;;5087493;28;20085;-75
2022/06/27 00:41:52;;;;;;;6.15;4.20;;;18.70;99.90;;;;;;5085212;28;20035;-73
2022/06/27 00:44:35;;;;;;;6.25;5.13;;;18.60;99.90;;;;;;5085106;28;20020;-73
2022/06/27 00:47:05;;;;;;;5.55;4.63;;;18.60;99.90;;;;;;5088059;28;20435;-74
2022/06/27 00:49:31;;;;;;;8.93;4.97;;;18.60;99.90;;;;;;5084133;28;20050;-74
2022/06/27 00:51:56;;;;;;;9.98;4.85;;;18.60;99.90;;;;;;5089107;28;20421;-74
2022/06/27 00:54:23;;;;;;;5.70;5.07;;;18.60;99.90;;;;;;5087914;28;20110;-74
2022/06/27 00:56:49;;;;;;;6.65;5.47;;;18.60;99.90;;;;;;5085098;28;20075;-74
2022/06/27 00:59:15;;;;;;;7.75;5.35;;;18.60;99.90;;;;;;5088768;28;20032;-73
2022/06/27 01:01:41;;;;;;;10.85;5.45;;;18.60;99.90;;;;;;5087268;28;20032;-74
2022/06/27 01:04:07;;;;;;;7.93;5.53;;;18.50;99.90;;;;;;5091403;28;20494;-73
2022/06/27 01:06:33;;;;;;;6.30;5.15;;;18.50;99.90;;;;;;5090198;28;20782;-74
2022/06/27 01:08:59;;;;;;;6.50;5.88;;;18.50;99.90;;;;;;5093523;28;20013;-74
2022/06/27 01:11:25;;;;;;;7.20;5.30;;;18.50;99.90;;;;;;5090502;28;20044;-74
2022/06/27 01:13:51;;;;;;;5.78;5.28;;;18.50;99.90;;;;;;5088497;28;20018;-73
2022/06/27 01:16:18;;;;;;;6.38;5.65;;;18.50;99.90;;;;;;5092007;28;20024;-75
2022/06/27 01:18:44;;;;;;;8.25;6.38;;;18.50;99.90;;;;;;5090914;28;20466;-74
2022/06/27 01:21:24;;;;;;;7.10;6.35;;;18.50;99.90;;;;;;5091531;28;20028;-75
2022/06/27 01:23:52;;;;;;;7.20;5.97;;;18.50;99.90;;;;;;5091569;28;20085;-73
2022/06/27 01:26:19;;;;;;;8.18;6.40;;;18.40;99.90;;;;;;5090801;28;20024;-74
2022/06/27 01:28:44;;;;;;;7.70;7.00;;;18.50;99.90;;;;;;5083305;28;20048;-74
2022/06/27 01:31:14;;;;;;;7.72;7.03;;;18.50;99.90;;;;;;5088496;28;20059;-74
2022/06/27 01:33:40;;;;;;;10.02;7.53;;;18.50;99.90;;;;;;5072632;28;20020;-73
2022/06/27 01:38:51;;;;;;;9.10;7.68;;;18.40;99.90;;;;;;5089445;28;20027;-74
2022/06/27 01:41:17;;;;;;;8.68;7.43;;;18.40;99.90;;;;;;5090819;28;20054;-75
2022/06/27 01:43:44;;;;;;;8.50;7.75;;;18.40;99.90;;;;;;5089918;28;20079;-74
2022/06/27 01:46:10;;;;;;;10.60;8.30;;;18.40;99.90;;;;;;5090542;28;20387;-74
2022/06/27 01:48:36;;;;;;;10.35;7.55;;;18.40;99.90;;;;;;5091060;28;20024;-74
2022/06/27 01:51:02;;;;;;;9.65;8.15;;;18.30;99.90;;;;;;5092337;28;20043;-75
2022/06/27 01:53:29;;;;;;;9.70;7.85;;;18.30;99.90;;;;;;5089764;28;20055;-74
2022/06/27 01:55:55;;;;;;;8.27;7.38;;;18.30;99.90;;;;;;5088815;28;20111;-75
2022/06/27 01:58:21;;;;;;;10.05;7.47;;;18.30;99.90;;;;;;5089134;28;20103;-75
2022/06/27 02:00:46;;;;;;;8.20;7.43;;;18.30;99.90;;;;;;5081889;28;20390;-74
2022/06/27 02:03:13;;;;;;;9.70;7.70;;;18.30;99.90;;;;;;5087913;28;20044;-75
2022/06/27 02:05:39;;;;;;;9.38;7.80;;;18.30;99.90;;;;;;5081574;28;20025;-74
2022/06/27 02:08:06;;;;;;;8.48;7.78;;;18.30;99.90;;;;;;5091881;28;20083;-74
2022/06/27 02:10:31;;;;;;;10.43;7.50;;;18.30;99.90;;;;;;5094495;28;20416;-75
2022/06/27 02:12:58;;;;;;;11.65;8.85;;;18.30;99.90;;;;;;5090742;28;20024;-75
2022/06/27 02:15:23;;;;;;;11.15;7.97;;;18.20;99.90;;;;;;5083005;28;20074;-75
2022/06/27 02:17:49;;;;;;;10.30;7.80;;;18.20;99.90;;;;;;5094106;28;20018;-74
2022/06/27 02:20:15;;;;;;;15.75;9.50;;;18.30;99.90;;;;;;5093431;28;20055;-73
2022/06/27 02:22:41;;;;;;;11.43;9.57;;;18.20;99.90;;;;;;5094038;28;20028;-74
2022/06/27 02:25:07;;;;;;;8.38;7.60;;;18.20;99.90;;;;;;5093703;28;20031;-74
2022/06/27 02:27:38;;;;;;;11.93;8.65;;;18.20;99.90;;;;;;5093110;28;20070;-74
2022/06/27 02:30:04;;;;;;;10.32;8.48;;;18.20;99.90;;;;;;5090133;28;20496;-75
2022/06/27 02:32:30;;;;;;;12.18;9.10;;;18.10;99.90;;;;;;5082287;28;20562;-74
2022/06/27 02:34:57;;;;;;;9.25;8.35;;;18.10;99.90;;;;;;5091554;28;20103;-74
2022/06/27 02:37:24;;;;;;;10.00;8.93;;;18.10;99.90;;;;;;5093065;28;20024;-74
2022/06/27 02:39:52;;;;;;;9.00;8.20;;;18.10;99.90;;;;;;5093384;28;20020;-74
2022/06/27 02:42:20;;;;;;;11.43;8.52;;;18.20;99.90;;;;;;5092686;28;20054;-74
2022/06/27 02:44:50;;;;;;;10.80;8.27;;;18.10;99.90;;;;;;5093389;28;20024;-75
2022/06/27 02:47:21;;;;;;;9.40;8.50;;;18.10;99.90;;;;;;5093474;28;20020;-75
2022/06/27 02:49:47;;;;;;;;;;;18.10;99.90;;;;;;5093213;28;20036;-74
2022/06/27 02:52:25;;;;;;;9.48;8.52;;;18.00;99.90;;;;;;5093100;28;20395;-74
2022/06/27 02:54:59;;;;;;;9.68;8.75;;;18.00;99.90;;;;;;5092873;28;20111;-75
2022/06/27 02:57:27;;;;;;;9.63;8.48;;;18.00;99.90;;;;;;5092089;28;20107;-74
2022/06/27 02:59:55;;;;;;;10.07;9.05;;;17.90;99.90;;;;;;5092790;28;20028;-76
2022/06/27 03:02:23;;;;;;;9.43;8.20;;;17.90;99.90;;;;;;5073898;28;20047;-75
2022/06/27 03:04:49;;;;;;;11.90;9.27;;;17.80;99.90;;;;;;5084757;28;20132;-74
2022/06/27 03:07:14;;;;;;;9.10;8.30;;;17.80;99.90;;;;;;5086415;28;20162;-75
2022/06/27 03:09:40;;;;;;;13.60;10.00;;;17.70;99.90;;;;;;5091949;28;20016;-73
2022/06/27 03:12:06;;;;;;;10.07;9.00;;;17.70;99.90;;;;;;5092735;28;20069;-74
2022/06/27 03:14:31;;;;;;;12.10;9.60;;;17.60;99.90;;;;;;5092777;28;20024;-74
2022/06/27 03:16:57;;;;;;;9.70;8.85;;;17.50;99.90;;;;;;5091230;28;20153;-74
2022/06/27 03:19:22;;;;;;;9.55;8.75;;;17.50;99.90;;;;;;5092592;28;20035;-75
2022/06/27 03:21:48;;;;;;;10.20;9.20;;;17.50;99.90;;;;;;5092305;28;20332;-75
2022/06/27 03:24:13;;;;;;;14.02;9.55;;;17.50;99.90;;;;;;5091404;28;20043;-74
2022/06/27 03:26:39;;;;;;;11.43;10.25;;;17.40;99.90;;;;;;5092258;28;20023;-74
2022/06/27 03:29:05;;;;;;;13.45;9.73;;;17.40;99.90;;;;;;5092485;28;20075;-74
2022/06/27 03:31:30;;;;;;;11.32;10.25;;;17.40;99.90;;;;;;5091706;28;20050;-74
2022/06/27 03:33:56;;;;;;;15.55;9.38;;;17.40;99.90;;;;;;5092072;28;20446;-74
2022/06/27 03:36:21;;;;;;;12.57;10.20;;;17.40;99.90;;;;;;5092223;28;20040;-74
2022/06/27 03:38:47;;;;;;;11.27;9.45;;;17.40;99.90;;;;;;5094137;28;20089;-75
2022/06/27 03:41:13;;;;;;;12.15;10.45;;;17.50;99.90;;;;;;5094070;28;20056;-74
2022/06/27 03:43:38;;;;;;;15.02;10.40;;;17.40;99.90;;;;;;5092766;28;20467;-74
2022/06/27 03:46:04;;;;;;;15.00;10.32;;;17.40;99.90;;;;;;5091777;28;20032;-74
2022/06/27 03:51:13;;;;;;;12.52;10.15;;;17.40;99.90;;;;;;5092129;28;20090;-73
2022/06/27 03:53:39;;;;;;;14.50;10.65;;;17.50;99.90;;;;;;5091701;28;20020;-75
2022/06/27 03:56:05;;;;;;;11.95;10.75;;;17.50;99.90;;;;;;5091889;28;20036;-73
2022/06/27 03:58:30;;;;;;;15.48;11.32;;;17.50;99.90;;;;;;5091365;28;20379;-73
2022/06/27 04:00:56;;;;;;;14.48;9.75;;;17.50;99.90;;;;;;5091668;28;20042;-73
2022/06/27 04:03:22;;;;;;;12.25;10.40;;;17.50;99.90;;;;;;5091924;28;20040;-74
2022/06/27 04:05:47;;;;;;;11.43;10.32;;;17.50;99.90;;;;;;5075794;28;20034;-75
2022/06/27 04:08:13;;;;;;;10.52;9.52;;;17.50;99.90;;;;;;5090827;28;20499;-74
2022/06/27 04:10:39;;;;;;;10.85;9.73;;;17.60;99.90;;;;;;5091416;28;20043;-75
2022/06/27 04:13:05;;;;;;;12.43;10.65;;;17.60;99.90;;;;;;5076345;28;20107;-75
2022/06/27 04:15:31;;;;;;;11.13;9.95;;;17.70;99.90;;;;;;5091775;28;20119;-75
2022/06/27 04:17:56;;;;;;;11.15;10.15;;;17.80;99.90;;;;;;5091260;28;20016;-74
2022/06/27 04:20:22;;;;;;;10.43;9.15;;;17.80;99.90;;;;;;5091495;28;20464;-73
2022/06/27 04:22:48;;;;;;;11.25;9.65;;;17.90;99.90;;;;;;5091434;28;20024;-73
2022/06/27 04:25:14;;;;;;;10.25;9.25;;;18.00;99.90;;;;;;5091986;28;20480;-74
2022/06/27 04:27:39;;;;;;;10.50;9.68;;;18.10;99.90;;;;;;5091150;28;20016;-73
2022/06/27 04:30:06;;;;;;;9.85;8.80;;;18.10;99.90;;;;;;5091152;28;20119;-74
2022/06/27 04:32:31;;;;;;;10.80;9.40;;;18.20;99.90;;;;;;5091728;28;20029;-74
2022/06/27 04:34:57;;;;;;;9.68;8.88;;;18.30;99.90;;;;;;5090936;28;20069;-75
2022/06/27 04:37:22;;;;;;;11.63;8.23;;;18.30;99.90;;;;;;5095789;28;20034;-74
2022/06/27 04:39:48;;;;;;;9.05;8.18;;;18.20;99.90;;;;;;5095307;28;20028;-74
2022/06/27 04:42:15;;;;;;;9.55;8.65;;;18.20;99.90;;;;;;5095063;28;20066;-74
2022/06/27 04:44:41;;;;;;;10.48;8.18;;;18.20;99.90;;;;;;5095479;28;20051;-75
2022/06/27 04:47:08;;;;;;;9.27;8.35;;;18.10;99.90;;;;;;5095195;28;20391;-74
2022/06/27 04:49:37;;;;;;;11.73;8.45;;;18.10;99.90;;;;;;5095044;28;20028;-74
2022/06/27 04:52:07;;;;;;;11.15;8.45;;;18.10;99.90;;;;;;5095463;28;20089;-74
2022/06/27 04:54:34;;;;;;;10.17;8.20;;;18.10;99.90;;;;;;5095557;28;20027;-75
2022/06/27 04:56:59;;;;;;;10.88;7.95;;;18.10;99.90;;;;;;5094129;28;20020;-74
2022/06/27 04:59:25;;;;;;;8.48;7.68;;;18.10;99.90;;;;;;5095617;28;20031;-74
2022/06/27 05:01:51;;;;;;;10.32;8.63;;;18.10;99.90;;;;;;5093938;28;20020;-73
2022/06/27 05:04:18;;;;;;;9.02;8.13;;;18.10;99.90;;;;;;5092213;28;20029;-74
2022/06/27 05:06:44;;;;;;;9.20;7.95;;;18.10;99.90;;;;;;5084754;28;20032;-74
2022/06/27 05:09:10;;;;;;;9.35;8.13;;;18.10;99.90;;;;;;5077946;28;20039;-74
2022/06/27 05:11:36;;;;;;;10.43;9.13;;;18.10;99.90;;;;;;5074814;28;20033;-73
2022/06/27 05:14:01;;;;;;;10.30;8.23;;;18.10;99.90;;;;;;5081601;28;20048;-74
2022/06/27 05:16:27;;;;;;;9.52;7.78;;;18.20;99.90;;;;;;5073935;28;20021;-75
2022/06/27 05:18:52;;;;;;;9.15;7.80;;;18.10;99.90;;;;;;5074458;28;20372;-74
2022/06/27 05:21:18;;;;;;;10.90;8.68;;;18.20;99.90;;;;;;5074996;28;20028;-73
2022/06/27 05:23:43;;;;;;;10.18;8.23;;;18.30;99.90;;;;;;5074278;28;20025;-75
2022/06/27 05:26:09;;;;;;;9.05;8.18;;;18.30;99.90;;;;;;5074214;28;20032;-74
2022/06/27 05:28:35;;;;;;;8.63;7.90;;;18.40;99.90;;;;;;5087151;28;20119;-76
2022/06/27 05:31:00;;;;;;;9.20;8.32;;;18.40;99.90;;;;;;5074887;28;20040;-75
2022/06/27 05:33:26;;;;;;;9.32;8.38;;;18.50;99.90;;;;;;5076428;28;20427;-74
2022/06/27 05:35:52;;;;;;;9.02;8.18;;;18.50;99.90;;;;;;5075781;28;20366;-73
2022/06/27 05:38:18;;;;;;;9.50;8.45;;;18.50;99.90;;;;;;5074510;28;20020;-74
2022/06/27 05:40:45;;;;;;;12.25;8.63;;;18.60;99.90;;;;;;5082255;28;20070;-74
2022/06/27 05:43:11;;;;;;;8.77;7.90;;;18.60;99.90;;;;;;5077235;28;20028;-74
2022/06/27 05:45:37;;;;;;;8.52;7.70;;;18.60;99.90;;;;;;5072881;28;20030;-73
2022/06/27 05:48:03;;;;;;;11.07;8.52;;;18.70;99.90;;;;;;5072698;28;20508;-73
2022/06/27 05:50:30;;;;;;;8.77;7.97;;;18.70;99.90;;;;;;5075277;28;20093;-74
2022/06/27 05:52:59;;;;;;;8.70;7.55;;;18.70;99.90;;;;;;5072587;28;20100;-73
2022/06/27 05:55:29;;;;;;;8.13;7.32;;;18.70;99.90;;;;;;5072928;28;20028;-72
2022/06/27 05:57:58;;;;;;;6.80;6.17;;;18.80;99.90;;;;;;5082410;28;20028;-72
2022/06/27 06:00:25;;;;;;;8.05;7.35;;;18.70;99.90;;;;;;5089763;28;20320;-72
2022/06/27 06:02:52;;;;;;;9.57;7.32;;;18.80;99.90;;;;;;5091330;28;20101;-73
2022/06/27 06:05:18;;;;;;;10.05;7.38;;;18.70;99.90;;;;;;5090157;28;20034;-73
2022/06/27 06:07:45;;;;;;;7.72;7.03;;;18.80;99.90;;;;;;5090407;28;20100;-73
2022/06/27 06:10:11;;;;;;;8.25;7.32;;;18.80;99.90;;;;;;5090763;28;20081;-74
2022/06/27 06:12:37;;;;;;;10.40;7.30;;;18.80;99.90;;;;;;5089365;28;20020;-75
2022/06/27 06:15:03;;;;;;;10.00;8.15;;;18.80;99.90;;;;;;5092850;28;20028;-74
2022/06/27 06:17:31;;;;;;;9.43;8.52;;;18.80;99.90;;;;;;5090470;28;20051;-74
2022/06/27 06:19:57;;;;;;;11.45;9.43;;;18.90;99.90;;;;;;5088000;28;20418;-76
2022/06/27 06:22:23;;;;;;;9.80;8.55;;;18.90;99.90;;;;;;5090249;28;20157;-76
2022/06/27 06:24:49;;;;;;;13.40;9.98;;;19.00;99.90;;;;;;5088369;28;20021;-77
2022/06/27 06:27:19;;;;;;;10.43;9.20;;;19.00;99.90;;;;;;5090045;28;20032;-77
2022/06/27 06:29:45;;;;;;;8.60;7.90;;;19.10;99.90;;;;;;5073751;28;20444;-78
2022/06/27 06:32:12;;;;;;;8.77;8.07;;;19.10;99.90;;;;;;5073273;28;20044;-77
2022/06/27 06:34:38;;;;;;;11.77;8.07;;;19.20;99.90;;;;;;5072933;28;20040;-74
2022/06/27 06:37:05;;;;;;;11.95;8.57;;;19.30;99.90;;;;;;5073642;28;20444;-80
2022/06/27 06:39:31;;;;;;;9.65;8.88;;;19.30;99.90;;;;;;5090896;28;20027;-76
2022/06/27 06:42:00;;;;;;;8.95;8.20;;;19.30;99.90;;;;;;5085777;28;20028;-74
2022/06/27 06:44:25;;;;;;;10.30;9.23;;;19.40;99.90;;;;;;5077949;28;20036;-75
2022/06/27 06:46:52;;;;;;;13.65;8.75;;;19.40;99.90;;;;;;5072687;28;20070;-77
2022/06/27 06:49:18;;;;;;;10.27;9.27;;;19.40;99.90;;;;;;5072791;28;20028;-76
2022/06/27 06:51:44;;;;;;;10.82;7.72;;;19.30;99.90;;;;;;5073053;28;20036;-76
2022/06/27 06:54:17;;;;;;;8.95;8.13;;;19.40;99.90;;;;;;5072654;28;20025;-77
2022/06/27 06:56:46;;;;;;;10.93;8.65;;;19.30;99.90;;;;;;5073695;28;20047;-78
2022/06/27 06:59:12;;;;;;;7.68;6.97;;;19.40;99.90;;;;;;5086689;28;20031;-76
2022/06/27 07:01:39;;;;;;;8.50;6.88;;;19.30;99.90;;;;;;5083521;28;20024;-78
2022/06/27 07:04:05;;;;;;;7.80;6.80;;;19.40;99.90;;;;;;5084860;28;20051;-78
2022/06/27 07:06:32;;;;;;;10.57;7.38;;;19.40;99.90;;;;;;5090077;28;20385;-78
2022/06/27 07:08:59;;;;;;;7.68;6.93;;;19.40;99.90;;;;;;5087037;28;20380;-79
2022/06/27 07:11:25;;;;;;;9.27;8.23;;;19.40;99.90;;;;;;5072276;28;20040;-79
2022/06/27 07:13:51;;;;;;;6.72;6.20;;;19.50;99.90;;;;;;5080586;28;20035;-79
2022/06/27 07:16:21;;;;;;;7.75;7.05;;;19.50;99.90;;;;;;5082688;28;20052;-81
2022/06/27 07:18:46;;;;;;;7.10;6.25;;;19.50;99.90;;;;;;5072047;28;20081;-78
2022/06/27 07:21:15;;;;;;;9.13;7.28;;;19.40;99.90;;;;;;5071995;28;20028;-79
2022/06/27 07:23:40;;;;;;;7.68;6.93;;;19.40;99.90;;;;;;5072198;28;20055;-79
2022/06/27 07:26:06;;;;;;;6.82;6.18;;;19.50;99.90;;;;;;5078993;28;20055;-79
2022/06/27 07:28:32;;;;;;;8.65;6.97;;;19.40;99.90;;;;;;5075054;28;20503;-78
2022/06/27 07:30:59;;;;;;;7.15;6.50;;;19.50;99.90;;;;;;5084012;28;20036;-78
2022/06/27 07:33:25;;;;;;;7.05;6.45;;;19.50;99.90;;;;;;5083334;28;20115;-77
2022/06/27 07:35:50;;;;;;;7.57;6.20;;;19.70;99.90;;;;;;5082387;28;20102;-76
2022/06/27 07:38:16;;;;;;;6.97;6.03;;;19.80;99.90;;;;;;5084867;28;20028;-77
2022/06/27 07:40:42;;;;;;;7.38;6.22;;;19.90;99.90;;;;;;5079574;28;20403;-77
2022/06/27 07:43:13;;;;;;;7.10;6.50;;;19.90;99.90;;;;;;5084759;28;20085;-78
2022/06/27 07:45:40;;;;;;;7.47;6.60;;;20.00;99.90;;;;;;5086042;28;20088;-74
2022/06/27 07:48:06;;;;;;;7.15;6.45;;;20.00;99.90;;;;;;5087457;28;20040;-76
2022/06/27 07:50:40;;;;;;;7.35;6.65;;;19.90;99.90;;;;;;5085362;28;20047;-74
2022/06/27 07:53:15;;;;;;;9.10;7.25;;;19.90;99.90;;;;;;5086608;28;20081;-75
2022/06/27 07:56:06;;;;;;;7.00;6.35;;;19.90;99.90;;;;;;5086885;28;20081;-75
2022/06/27 07:58:35;;;;;;;9.20;7.22;;;19.80;99.90;;;;;;5079909;28;20467;-76
2022/06/27 08:01:03;;;;;;;7.23;6.53;;;19.90;99.90;;;;;;5086429;28;20048;-75
2022/06/27 08:03:39;;;;;;;7.70;7.00;;;19.90;99.90;;;;;;5087815;28;20052;-76
2022/06/27 08:06:18;;;;;;;7.28;6.65;;;19.90;99.90;;;;;;5086225;28;20069;-75
2022/06/27 08:08:55;;;;;;;6.95;6.25;;;19.80;99.90;;;;;;5090350;28;20123;-75
2022/06/27 08:11:26;;;;;;;6.43;5.93;;;19.80;99.90;;;;;;5089179;28;20036;-75
2022/06/27 08:13:56;;;;;;;8.32;7.40;;;19.90;99.90;;;;;;5089471;28;20389;-75
2022/06/27 08:16:24;;;;;;;8.75;6.88;;;19.90;99.90;;;;;;5090003;28;20039;-74
2022/06/27 08:18:51;;;;;;;9.30;8.25;;;20.00;99.90;;;;;;5088695;28;20020;-75
2022/06/27 08:21:27;;;;;;;10.65;8.45;;;20.10;99.90;;;;;;5086278;28;20196;-76
2022/06/27 08:23:54;;;;;;;9.70;7.57;;;20.10;99.90;;;;;;5084836;28;20048;-76
2022/06/27 08:26:21;;;;;;;8.00;7.30;;;20.10;99.90;;;;;;5081039;28;20594;-75
2022/06/27 08:28:47;;;;;;;8.35;7.65;;;20.20;99.90;;;;;;5086994;28;20538;-74
2022/06/27 08:31:13;;;;;;;8.52;7.60;;;20.20;99.90;;;;;;5087211;28;20067;-77
2022/06/27 08:33:43;;;;;;;8.32;7.53;;;20.20;99.90;;;;;;5087118;28;20056;-75
2022/06/27 08:36:10;;;;;;;10.10;8.98;;;20.30;99.90;;;;;;5085472;28;20024;-74
2022/06/27 08:38:50;;;;;;;10.82;7.50;;;20.40;99.90;;;;;;5081601;28;20036;-75
2022/06/27 08:41:17;;;;;;;7.45;6.72;;;20.60;99.90;;;;;;5078615;28;20121;-75
2022/06/27 08:43:43;;;;;;;8.00;7.30;;;20.60;99.90;;;;;;5072735;28;20016;-74
2022/06/27 08:46:15;;;;;;;7.93;7.18;;;20.60;99.90;;;;;;5082672;28;20032;-74
2022/06/27 08:48:42;;;;;;;6.88;6.28;;;20.70;99.90;;;;;;5081909;28;20024;-74
2022/06/27 08:51:09;;;;;;;7.95;6.88;;;20.60;99.90;;;;;;5083896;28;20040;-74
2022/06/27 08:53:37;;;;;;;11.60;8.10;;;20.70;99.90;;;;;;5081487;28;20020;-75
2022/06/27 08:56:03;;;;;;;7.78;7.07;;;20.60;99.90;;;;;;5084556;28;20063;-74
2022/06/27 08:58:29;;;;;;;9.65;7.32;;;20.60;99.90;;;;;;5085863;28;20375;-75
2022/06/27 09:00:55;;;;;;;9.55;6.82;;;20.50;99.90;;;;;;5084797;28;20035;-76
2022/06/27 09:03:22;;;;;;;8.32;7.57;;;20.40;99.90;;;;;;5086137;28;20044;-75
2022/06/27 09:06:01;;;;;;;9.98;7.65;;;20.40;99.90;;;;;;5083941;28;20028;-76
2022/06/27 09:08:55;;;;;;;7.65;6.93;;;20.40;99.90;;;;;;5084459;28;20031;-76
2022/06/27 09:11:29;;;;;;;10.60;8.40;;;20.30;99.90;;;;;;5086028;28;20054;-75
2022/06/27 09:13:55;;;;;;;9.68;8.10;;;20.20;99.90;;;;;;5084523;28;20020;-75
2022/06/27 09:16:21;;;;;;;10.38;8.45;;;20.20;99.90;;;;;;5086950;28;20035;-74
2022/06/27 09:18:46;;;;;;;9.55;8.55;;;20.20;99.90;;;;;;5081571;28;20495;-75
2022/06/27 09:21:13;;;;;;;10.02;7.75;;;20.10;99.90;;;;;;5083622;28;20761;-76
2022/06/27 09:23:47;;;;;;;8.02;7.18;;;20.10;99.90;;;;;;5083361;28;20156;-75
2022/06/27 09:26:25;;;;;;;9.05;7.80;;;20.10;99.90;;;;;;5089515;28;20027;-75
2022/06/27 09:29:11;;;;;;;9.60;7.95;;;20.10;99.90;;;;;;5087768;28;20062;-74
2022/06/27 09:31:46;;;;;;;11.20;7.97;;;20.10;99.90;;;;;;5084316;28;20028;-74
2022/06/27 09:34:23;;;;;;;8.38;7.10;;;20.20;99.90;;;;;;5075085;28;20032;-74
2022/06/27 09:36:54;;;;;;;8.30;7.43;;;20.20;99.90;;;;;;5081598;28;20032;-74
2022/06/27 09:39:19;;;;;;;;;;;20.30;99.90;;;;;;5079807;28;20017;-74
2022/06/27 09:41:50;;;;;;;9.13;8.23;;;20.40;99.90;;;;;;5089187;28;19908;-74
2022/06/27 09:44:22;;;;;;;11.20;8.40;;;20.50;99.90;;;;;;5087940;28;20061;-77
2022/06/27 09:46:54;;;;;;;9.57;8.63;;;20.60;99.90;;;;;;5080913;28;20040;-77
2022/06/27 09:49:21;;;;;;;9.82;8.82;;;20.60;99.90;;;;;;5086172;28;20024;-77
2022/06/27 09:51:48;;;;;;;8.80;7.65;;;20.60;99.90;;;;;;5087365;28;20072;-76
2022/06/27 09:54:20;;;;;;;9.85;8.35;;;20.60;99.90;;;;;;5089471;28;20047;-77
2022/06/27 09:56:48;;;;;;;10.82;9.10;;;20.60;99.90;;;;;;5088204;28;20079;-77
2022/06/27 09:59:14;;;;;;;9.70;8.70;;;20.60;99.90;;;;;;5089843;28;20031;-77
2022/06/27 10:01:41;;;;;;;9.93;8.93;;;20.60;99.90;;;;;;5087145;28;20028;-76
2022/06/27 10:04:08;;;;;;;13.20;9.63;;;20.80;99.90;;;;;;5090052;28;20106;-77
2022/06/27 10:06:36;;;;;;;9.82;8.20;;;20.80;99.90;;;;;;5091094;28;20024;-77
2022/06/27 10:09:04;;;;;;;9.02;7.72;;;21.00;99.90;;;;;;5092269;28;20035;-78
2022/06/27 10:11:30;;;;;;;10.65;9.55;;;21.00;99.90;;;;;;5091520;28;20040;-78
2022/06/27 10:14:10;;;;;;;10.57;9.13;;;21.20;99.90;;;;;;5085435;28;20028;-78
2022/06/27 10:16:52;;;;;;;10.95;9.05;;;21.20;99.90;;;;;;5083880;28;20107;-77
2022/06/27 10:19:18;;;;;;;10.63;9.63;;;21.30;99.90;;;;;;5086861;28;20024;-77
2022/06/27 10:21:48;;;;;;;9.73;8.38;;;21.30;99.90;;;;;;5095084;28;20024;-78
2022/06/27 10:24:26;;;;;;;10.43;9.45;;;21.40;99.90;;;;;;5075124;28;20039;-76
2022/06/27 10:26:55;;;;;;;9.65;8.52;;;21.40;99.90;;;;;;5071387;28;20564;-73
2022/06/27 10:29:42;;;;;;;9.13;8.32;;;21.50;99.90;;;;;;5071972;28;20052;-77
2022/06/27 10:32:28;;;;;;;7.57;6.88;;;21.50;99.90;;;;;;5076459;28;20434;-78
2022/06/27 10:34:54;;;;;;;9.70;8.73;;;21.40;99.90;;;;;;5075497;28;20025;-77
2022/06/27 10:37:25;;;;;;;10.20;9.18;;;21.40;99.90;;;;;;5082109;28;20020;-76
2022/06/27 10:40:15;;;;;;;10.77;8.02;;;21.30;99.90;;;;;;5078701;28;20073;-76
2022/06/27 10:42:56;;;;;;;9.73;8.73;;;21.30;99.90;;;;;;5087843;28;20020;-77
2022/06/27 10:45:29;;;;;;;12.02;10.75;;;21.20;99.90;;;;;;5080321;28;20020;-77
2022/06/27 10:48:01;;;;;;;11.07;9.45;;;21.20;99.90;;;;;;5086342;28;20024;-77
2022/06/27 10:50:38;;;;;;;9.18;8.38;;;21.20;99.90;;;;;;5083169;28;20066;-76
2022/06/27 10:53:19;;;;;;;11.25;9.00;;;21.20;99.90;;;;;;5089274;28;20048;-76
2022/06/27 10:55:45;;;;;;;11.68;10.52;;;21.20;99.90;;;;;;5090268;28;20475;-76
2022/06/27 10:58:23;;;;;;;10.48;9.35;;;21.30;99.90;;;;;;5090734;28;20372;-77
2022/06/27 11:00:49;;;;;;;10.95;9.23;;;21.30;99.90;;;;;;5087796;28;20027;-77
2022/06/27 11:03:20;;;;;;;10.75;9.65;;;21.40;99.90;;;;;;5086673;28;20553;-78
2022/06/27 11:05:55;;;;;;;10.43;9.38;;;21.40;99.90;;;;;;5085569;28;20028;-77
2022/06/27 11:08:22;;;;;;;14.88;11.05;;;21.50;99.90;;;;;;5083993;28;20031;-76
2022/06/27 11:10:49;;;;;;;14.57;11.63;;;21.60;99.90;;;;;;5086696;28;20032;-76
2022/06/27 11:13:41;;;;;;;12.90;10.65;;;21.60;99.90;;;;;;5090375;28;20016;-77
2022/06/27 11:16:33;;;;;;;11.30;9.55;;;21.60;99.90;;;;;;5088419;28;20035;-76
2022/06/27 11:20:04;;;;;;;8.98;7.22;;;21.60;99.90;;;;;;5084963;28;20092;-76
2022/06/27 11:21:50;;;;;;;8.85;6.07;;;21.40;99.90;;;;;;5085347;28;20189;-79
2022/06/27 11:24:15;;;;;;;9.18;7.47;;;21.30;99.90;;;;;;5088711;28;20099;-78
2022/06/27 11:26:46;;;;;;;9.77;8.77;;;21.10;99.90;;;;;;5087591;28;20020;-78
2022/06/27 11:32:06;;;;;;;6.63;5.93;;;20.90;99.90;;;;;;5088427;28;20043;-77
2022/06/27 11:34:35;;;;;;;8.60;4.90;;;20.90;99.90;;;;;;5088578;28;20501;-77
2022/06/27 11:37:07;;;;;;;6.47;4.60;;;20.90;99.90;;;;;;5086117;28;20028;-77
2022/06/27 11:39:34;;;;;;;10.13;5.15;;;20.90;99.90;;;;;;5086235;28;20514;-77
2022/06/27 11:42:10;;;;;;;6.78;5.20;;;20.80;99.90;;;;;;5082668;28;20037;-78
2022/06/27 11:44:36;;;;;;;8.93;5.10;;;20.80;99.90;;;;;;5075890;28;20104;-78
2022/06/27 11:47:08;;;;;;;7.03;5.18;;;20.70;99.90;;;;;;5086752;28;20031;-79
2022/06/27 11:49:35;;;;;;;5.78;4.65;;;20.60;99.90;;;;;;5078616;28;20024;-79
2022/06/27 11:52:07;;;;;;;5.85;4.75;;;20.50;99.90;;;;;;5071327;28;20062;-77
2022/06/27 11:54:52;;;;;;;6.53;4.25;;;20.40;99.90;;;;;;5072377;28;20380;-75
2022/06/27 11:57:31;;;;;;;9.25;4.75;;;20.30;99.90;;;;;;5072071;28;20043;-76
2022/06/27 11:59:57;;;;;;;6.13;4.75;;;20.30;99.90;;;;;;5071482;28;20033;-77
2022/06/27 12:02:35;;;;;;;6.82;4.80;;;20.30;99.90;;;;;;5071389;28;20040;-77
2022/06/27 12:05:11;;;;;;;10.80;5.80;;;20.40;99.90;;;;;;5069900;28;20025;-77
2022/06/27 12:07:56;;;;;;;8.70;5.55;;;20.50;99.90;;;;;;5071583;28;20031;-77
2022/06/27 12:13:37;;;;;;;7.85;5.85;;;20.80;99.90;;;;;;5079695;28;20617;-76
2022/06/27 12:16:06;;;;;;;6.43;5.82;;;20.80;99.90;;;;;;5071328;28;20039;-75
2022/06/27 12:18:37;;;;;;;8.50;5.82;;;20.80;99.90;;;;;;5078491;28;20028;-75
2022/06/27 12:21:03;;;;;;;13.35;6.32;;;20.80;99.90;;;;;;5078798;28;20028;-75
2022/06/27 12:23:29;;;;;;;6.22;4.47;;;20.70;99.90;;;;;;5071370;28;20071;-76
2022/06/27 12:25:56;;;;;;;7.07;4.75;;;20.70;99.90;;;;;;5070344;28;20108;-76
2022/06/27 12:28:21;;;;;;;9.35;4.32;;;20.70;99.90;;;;;;5071661;28;20074;-76
2022/06/27 12:30:47;;;;;;;8.13;4.72;;;20.70;99.90;;;;;;5071053;28;20037;-79
2022/06/27 12:33:13;;;;;;;12.77;4.43;;;20.80;99.90;;;;;;5070877;28;20427;-76
2022/06/27 12:35:39;;;;;;;8.10;4.85;;;20.80;99.90;;;;;;5071562;28;20028;-77
2022/06/27 12:38:07;;;;;;;7.55;5.47;;;20.80;99.90;;;;;;5071803;28;20025;-78
2022/06/27 12:40:33;;;;;;;9.07;6.43;;;20.70;99.90;;;;;;5052743;28;20106;-75
2022/06/27 12:42:58;;;;;;;12.68;5.72;;;20.70;99.90;;;;;;5053440;28;20135;-76
2022/06/27 12:45:24;;;;;;;6.35;5.18;;;20.60;99.90;;;;;;5071223;28;20405;-77
2022/06/27 12:47:50;;;;;;;10.15;4.85;;;20.50;99.90;;;;;;5070306;28;20112;-77
2022/06/27 12:50:16;;;;;;;5.95;4.35;;;20.40;99.90;;;;;;5070559;28;20025;-76
2022/06/27 12:52:43;;;;;;;6.90;4.25;;;20.30;99.90;;;;;;5071373;28;20078;-76
2022/06/27 12:55:08;;;;;;;6.03;4.95;;;20.00;99.90;;;;;;5070465;28;20032;-75
2022/06/27 12:57:34;;;;;;;7.50;4.95;;;20.00;99.90;;;;;;5074658;28;20442;-76
2022/06/27 13:00:01;;;;;;;10.77;5.35;;;19.90;99.90;;;;;;5091045;28;20114;-76